Time,TemperatureF,DewpointF,PressureIn,WindDirection,WindDirectionDegrees,WindSpeedMPH,WindSpeedGustMPH,Humidity,HourlyPrecipIn,Conditions,Clouds,dailyrainin,SoftwareType,DateUTC
2013-03-05 00:14:00,63.0,62.4,29.80,ESE,112,4.2,-999.0,98,-99.99,,,0.00,Acu-Link.com,2013-03-05 06:14:00,
2013-03-05 00:29:00,62.8,62.2,29.77,SSE,157,2.2,-999.0,98,-99.99,,,0.00,Acu-Link.com,2013-03-05 06:29:00,
2013-03-05 00:44:00,62.8,62.2,29.79,ESE,112,4.7,-999.0,98,-99.99,,,0.00,Acu-Link.com,2013-03-05 06:44:00,
2013-03-05 00:59:00,63.0,62.4,29.80,SE,135,2.7,-999.0,98,-99.99,,,0.00,Acu-Link.com,2013-03-05 06:59:00,
2013-03-05 01:14:00,63.1,62.5,29.80,ESE,112,1.7,-999.0,98,-99.99,,,0.00,Acu-Link.com,2013-03-05 07:14:00,
2013-03-05 01:29:00,63.1,62.5,29.79,SSE,157,3.7,-999.0,98,-99.99,,,0.00,Acu-Link.com,2013-03-05 07:29:00,
2013-03-05 01:45:00,63.1,62.5,29.77,ESE,112,2.2,-999.0,98,-99.99,,,0.00,Acu-Link.com,2013-03-05 07:45:00,
2013-03-05 02:00:00,63.3,62.7,29.77,West,270,3.2,-999.0,98,-99.99,,,0.00,Acu-Link.com,2013-03-05 08:00:00,
2013-03-05 02:15:00,63.5,62.9,29.79,SSE,157,3.2,-999.0,98,-99.99,,,0.00,Acu-Link.com,2013-03-05 08:15:00,
2013-03-05 02:30:00,63.3,62.7,29.77,SW,225,2.7,-999.0,98,-99.99,,,0.00,Acu-Link.com,2013-03-05 08:30:00,
2013-03-05 02:45:00,63.1,62.5,29.79,ESE,112,3.7,-999.0,98,-99.99,,,0.00,Acu-Link.com,2013-03-05 08:45:00,
2013-03-05 03:00:00,63.0,62.4,29.77,West,270,1.7,-999.0,98,-99.99,,,0.00,Acu-Link.com,2013-03-05 09:00:00,
2013-03-05 03:15:00,62.4,61.8,29.79,South,180,4.7,-999.0,98,-99.99,,,0.00,Acu-Link.com,2013-03-05 09:15:00,
2013-03-05 03:30:00,62.2,61.6,29.75,South,180,2.7,-999.0,98,-99.99,,,0.00,Acu-Link.com,2013-03-05 09:30:00,
2013-03-05 03:45:00,61.9,61.3,29.75,SSE,157,2.7,-999.0,98,-99.99,,,0.00,Acu-Link.com,2013-03-05 09:45:00,
2013-03-05 04:01:00,61.5,60.9,29.78,SE,135,1.7,-999.0,98,-99.99,,,0.00,Acu-Link.com,2013-03-05 10:01:00,
2013-03-05 04:16:00,61.5,60.9,29.78,SSE,157,4.2,-999.0,98,-99.99,,,0.00,Acu-Link.com,2013-03-05 10:16:00,
2013-03-05 04:31:00,61.7,61.1,29.75,SSW,202,5.8,-999.0,98,-99.99,,,0.00,Acu-Link.com,2013-03-05 10:31:00,
2013-03-05 04:46:00,62.2,61.6,29.75,SSE,157,4.2,-999.0,98,-99.99,,,0.00,Acu-Link.com,2013-03-05 10:46:00,
2013-03-05 05:01:00,62.2,61.6,29.79,South,180,3.2,-999.0,98,-99.99,,,0.00,Acu-Link.com,2013-03-05 11:01:00,
2013-03-05 05:16:00,62.4,61.8,29.79,SW,225,2.7,-999.0,98,-99.99,,,0.00,Acu-Link.com,2013-03-05 11:16:00,
2013-03-05 05:32:00,62.6,62.0,29.80,South,180,4.2,-999.0,98,-99.99,,,0.00,Acu-Link.com,2013-03-05 11:32:00,
2013-03-05 05:47:00,63.0,62.4,29.79,SSW,202,3.2,-999.0,98,-99.99,,,0.00,Acu-Link.com,2013-03-05 11:47:00,
2013-03-05 06:02:00,63.1,62.5,29.80,SSW,202,4.2,-999.0,98,-99.99,,,0.00,Acu-Link.com,2013-03-05 12:02:00,
2013-03-05 06:17:00,63.1,62.5,29.83,WSW,247,1.7,-999.0,98,-99.99,,,0.00,Acu-Link.com,2013-03-05 12:17:00,
2013-03-05 06:32:00,63.1,62.5,29.88,West,270,4.2,-999.0,98,-99.99,,,0.00,Acu-Link.com,2013-03-05 12:32:00,
2013-03-05 06:47:00,63.1,62.5,29.85,WSW,247,2.2,-999.0,98,-99.99,,,0.00,Acu-Link.com,2013-03-05 12:47:00,
2013-03-05 07:02:00,63.1,62.5,29.86,SE,135,0.0,-999.0,98,-99.99,,,0.00,Acu-Link.com,2013-03-05 13:02:00,
2013-03-05 07:17:00,63.0,62.4,29.88,South,180,2.7,-999.0,98,-99.99,,,0.00,Acu-Link.com,2013-03-05 13:17:00,
2013-03-05 07:32:00,63.1,62.5,29.87,SSE,157,1.7,-999.0,98,-99.99,,,0.00,Acu-Link.com,2013-03-05 13:32:00,
2013-03-05 07:48:00,63.3,62.7,29.85,SE,135,2.7,-999.0,98,-99.99,,,0.00,Acu-Link.com,2013-03-05 13:48:00,
2013-03-05 08:03:00,63.7,63.1,29.86,SSW,202,2.7,-999.0,98,-99.99,,,0.00,Acu-Link.com,2013-03-05 14:03:00,
2013-03-05 08:18:00,64.8,64.2,29.88,SSW,202,2.7,-999.0,98,-99.99,,,0.00,Acu-Link.com,2013-03-05 14:18:00,
2013-03-05 08:33:00,65.3,64.7,29.89,ESE,112,2.2,-999.0,98,-99.99,,,0.00,Acu-Link.com,2013-03-05 14:33:00,
2013-03-05 08:48:00,65.8,65.2,29.85,West,270,4.7,-999.0,98,-99.99,,,0.00,Acu-Link.com,2013-03-05 14:48:00,
2013-03-05 09:03:00,68.5,67.0,29.86,SSE,157,7.8,-999.0,95,-99.99,,,0.00,Acu-Link.com,2013-03-05 15:03:00,
2013-03-05 09:18:00,70.0,67.9,29.88,WSW,247,4.7,-999.0,93,-99.99,,,0.00,Acu-Link.com,2013-03-05 15:18:00,
2013-03-05 09:33:00,71.1,68.3,29.88,SSW,202,14.5,-999.0,91,-99.99,,,0.00,Acu-Link.com,2013-03-05 15:33:00,
2013-03-05 09:48:00,72.5,68.7,29.88,SSW,202,10.9,-999.0,88,-99.99,,,0.00,Acu-Link.com,2013-03-05 15:48:00,
2013-03-05 10:04:00,72.5,67.7,29.88,WSW,247,8.3,-999.0,85,-99.99,,,0.00,Acu-Link.com,2013-03-05 16:04:00,
2013-03-05 10:19:00,72.3,67.5,29.86,West,270,7.8,-999.0,85,-99.99,,,0.00,Acu-Link.com,2013-03-05 16:19:00,
2013-03-05 10:34:00,72.5,67.4,29.89,West,270,5.8,-999.0,84,-99.99,,,0.00,Acu-Link.com,2013-03-05 16:34:00,
2013-03-05 10:49:00,72.5,67.0,29.85,SW,225,9.9,-999.0,83,-99.99,,,0.00,Acu-Link.com,2013-03-05 16:49:00,
2013-03-05 11:04:00,72.0,66.9,29.86,SSW,202,6.3,-999.0,84,-99.99,,,0.00,Acu-Link.com,2013-03-05 17:04:00,
2013-03-05 11:19:00,72.0,66.9,29.87,WNW,292,6.8,-999.0,84,-99.99,,,0.00,Acu-Link.com,2013-03-05 17:19:00,
2013-03-05 11:34:00,72.1,67.0,29.90,SW,225,5.8,-999.0,84,-99.99,,,0.00,Acu-Link.com,2013-03-05 17:34:00,
2013-03-05 11:49:00,72.5,67.0,29.89,South,180,8.9,-999.0,83,-99.99,,,0.00,Acu-Link.com,2013-03-05 17:49:00,
2013-03-05 12:04:00,73.6,67.4,29.87,WSW,247,8.3,-999.0,81,-99.99,,,0.00,Acu-Link.com,2013-03-05 18:04:00,
2013-03-05 12:20:00,72.7,66.5,29.89,WSW,247,8.9,-999.0,81,-99.99,,,0.00,Acu-Link.com,2013-03-05 18:20:00,
2013-03-05 12:35:00,69.3,63.2,29.91,WSW,247,10.9,-999.0,81,-99.99,,,0.00,Acu-Link.com,2013-03-05 18:35:00,
2013-03-05 12:50:00,72.1,64.1,29.86,SW,225,7.3,-999.0,76,-99.99,,,0.00,Acu-Link.com,2013-03-05 18:50:00,
2013-03-05 13:05:00,74.3,63.0,29.89,West,270,10.4,-999.0,68,-99.99,,,0.00,Acu-Link.com,2013-03-05 19:05:00,
2013-03-05 13:20:00,75.2,60.8,29.88,West,270,7.8,-999.0,61,-99.99,,,0.00,Acu-Link.com,2013-03-05 19:20:00,
2013-03-05 13:35:00,75.7,60.8,29.86,WSW,247,9.4,-999.0,60,-99.99,,,0.00,Acu-Link.com,2013-03-05 19:35:00,
2013-03-05 13:50:00,75.6,61.2,29.88,West,270,13.5,-999.0,61,-99.99,,,0.00,Acu-Link.com,2013-03-05 19:50:00,
2013-03-05 14:06:00,75.6,60.7,29.88,West,270,11.9,-999.0,60,-99.99,,,0.00,Acu-Link.com,2013-03-05 20:06:00,
2013-03-05 14:21:00,75.4,59.6,29.88,SSW,202,10.4,-999.0,58,-99.99,,,0.00,Acu-Link.com,2013-03-05 20:21:00,
2013-03-05 14:36:00,75.4,58.1,29.85,West,270,6.8,-999.0,55,-99.99,,,0.00,Acu-Link.com,2013-03-05 20:36:00,
2013-03-05 14:51:00,75.6,57.2,29.85,West,270,10.4,-999.0,53,-99.99,,,0.00,Acu-Link.com,2013-03-05 20:51:00,
2013-03-05 15:06:00,75.4,55.5,29.89,WNW,292,6.3,-999.0,50,-99.99,,,0.00,Acu-Link.com,2013-03-05 21:06:00,
2013-03-05 15:21:00,75.4,54.3,29.88,NW,315,7.3,-999.0,48,-99.99,,,0.00,Acu-Link.com,2013-03-05 21:21:00,
2013-03-05 15:36:00,74.8,54.3,29.88,NE,45,9.4,-999.0,49,-99.99,,,0.00,Acu-Link.com,2013-03-05 21:36:00,
2013-03-05 15:51:00,74.3,51.6,29.89,West,270,5.3,-999.0,45,-99.99,,,0.00,Acu-Link.com,2013-03-05 21:51:00,
2013-03-05 16:07:00,74.3,51.0,29.89,SW,225,8.9,-999.0,44,-99.99,,,0.00,Acu-Link.com,2013-03-05 22:07:00,
2013-03-05 16:22:00,73.6,50.3,29.89,NNW,337,3.2,-999.0,44,-99.99,,,0.00,Acu-Link.com,2013-03-05 22:22:00,
2013-03-05 16:37:00,73.0,49.2,29.88,West,270,6.3,-999.0,43,-99.99,,,0.00,Acu-Link.com,2013-03-05 22:37:00,
2013-03-05 16:52:00,72.1,47.1,29.91,ENE,67,4.2,-999.0,41,-99.99,,,0.00,Acu-Link.com,2013-03-05 22:52:00,
2013-03-05 17:07:00,71.4,47.1,29.92,WNW,292,2.7,-999.0,42,-99.99,,,0.00,Acu-Link.com,2013-03-05 23:07:00,
2013-03-05 17:22:00,70.7,47.1,29.93,NNE,22,1.7,-999.0,43,-99.99,,,0.00,Acu-Link.com,2013-03-05 23:22:00,
2013-03-05 17:37:00,70.5,46.3,29.93,North,0,7.3,-999.0,42,-99.99,,,0.00,Acu-Link.com,2013-03-05 23:37:00,
2013-03-05 17:52:00,68.4,46.2,29.91,SW,225,4.2,-999.0,45,-99.99,,,0.00,Acu-Link.com,2013-03-05 23:52:00,
2013-03-05 18:07:00,66.7,45.8,29.95,WNW,292,5.3,-999.0,47,-99.99,,,0.00,Acu-Link.com,2013-03-06 00:07:00,
2013-03-05 18:23:00,65.7,46.0,29.95,West,270,5.8,-999.0,49,-99.99,,,0.00,Acu-Link.com,2013-03-06 00:23:00,
2013-03-05 18:38:00,64.9,45.3,29.96,NW,315,5.3,-999.0,49,-99.99,,,0.00,Acu-Link.com,2013-03-06 00:38:00,
2013-03-05 18:53:00,64.6,45.0,29.94,West,270,6.3,-999.0,49,-99.99,,,0.00,Acu-Link.com,2013-03-06 00:53:00,
2013-03-05 19:08:00,64.0,44.5,29.97,West,270,1.7,-999.0,49,-99.99,,,0.00,Acu-Link.com,2013-03-06 01:08:00,
2013-03-05 19:23:00,62.8,44.4,29.94,West,270,4.2,-999.0,51,-99.99,,,0.00,Acu-Link.com,2013-03-06 01:23:00,
2013-03-05 19:38:00,61.5,44.7,29.98,NW,315,1.7,-999.0,54,-99.99,,,0.00,Acu-Link.com,2013-03-06 01:38:00,
2013-03-05 19:53:00,60.1,44.4,29.95,NW,315,1.7,-999.0,56,-99.99,,,0.00,Acu-Link.com,2013-03-06 01:53:00,
2013-03-05 20:08:00,59.5,44.3,30.00,SSW,202,0.0,-999.0,57,-99.99,,,0.00,Acu-Link.com,2013-03-06 02:08:00,
2013-03-05 20:23:00,59.5,44.7,29.99,NNE,22,2.7,-999.0,58,-99.99,,,0.00,Acu-Link.com,2013-03-06 02:23:00,
2013-03-05 20:39:00,59.2,44.9,30.02,NW,315,1.1,-999.0,59,-99.99,,,0.00,Acu-Link.com,2013-03-06 02:39:00,
2013-03-05 20:54:00,58.1,44.7,29.99,WNW,292,4.2,-999.0,61,-99.99,,,0.00,Acu-Link.com,2013-03-06 02:54:00,
2013-03-05 21:09:00,59.4,43.7,30.02,NW,315,4.2,-999.0,56,-99.99,,,0.00,Acu-Link.com,2013-03-06 03:09:00,
2013-03-05 21:25:00,59.0,42.9,30.02,West,270,4.7,-999.0,55,-99.99,,,0.00,Acu-Link.com,2013-03-06 03:25:00,
2013-03-05 21:40:00,58.3,42.2,30.05,NNW,337,4.2,-999.0,55,-99.99,,,0.00,Acu-Link.com,2013-03-06 03:40:00,
2013-03-05 21:55:00,57.7,42.1,30.05,NNE,22,4.7,-999.0,56,-99.99,,,0.00,Acu-Link.com,2013-03-06 03:55:00,
2013-03-05 22:10:00,57.4,41.8,30.02,ENE,67,2.7,-999.0,56,-99.99,,,0.00,Acu-Link.com,2013-03-06 04:10:00,
2013-03-05 22:26:00,56.1,41.1,30.04,NNW,337,2.7,-999.0,57,-99.99,,,0.00,Acu-Link.com,2013-03-06 04:26:00,
2013-03-05 22:41:00,54.9,41.3,30.05,North,0,1.7,-999.0,60,-99.99,,,0.00,Acu-Link.com,2013-03-06 04:41:00,
2013-03-05 23:10:00,54.9,40.4,30.08,NNW,337,5.8,-999.0,58,-99.99,,,0.00,Acu-Link.com,2013-03-06 05:10:00,
2013-03-05 23:25:00,54.7,40.2,30.05,NNE,22,2.2,-999.0,58,-99.99,,,0.00,Acu-Link.com,2013-03-06 05:25:00,
2013-03-05 23:40:00,54.9,39.5,30.10,NNW,337,2.7,-999.0,56,-99.99,,,0.00,Acu-Link.com,2013-03-06 05:40:00,
2013-03-05 23:55:00,54.3,38.9,30.07,WSW,247,6.3,-999.0,56,-99.99,,,0.00,Acu-Link.com,2013-03-06 05:55:00,